Brownfield, ME (04010)

6:48 AM EDT on September 30, 2014 (GMT -0400)
misty lane | Change Station
CLOSE
Current Station
Personal Weather Station
Location: Brownfield, ME
Elevation: 404 ft
Nearby Weather Stations

Elev 404 ft 43.94 °N, 70.87 °W | Updated 14 minutes ago

Overcast
Overcast
52.6 °F
Feels Like 52.6 °F
N
0.0
Wind Variable Wind from West
Gusts 1.0 mph

Today
High -- | Low -- °F
--% Chance of Precip.
Yesterday
High -- | Low -- °F
Precip. -- in
6:40 AM 6:26 PM
Waxing Crescent, 35% visible
Pressure 30.07 in
Visibility 10.0 miles
Clouds Few 800 ft
Overcast 1600 ft
Dew Point 51 °F
Humidity 94%
Rainfall 0.01 in
Snow Depth Not available.
UV 0 out of 12
Pollen 2.10 out of 12
Ozone Good
Flu Activity Not available.
METAR KIZG 300954Z AUTO 04006KT 10SM FEW008 OVC016 11/10 A3006 RMK AO2 SLP181 T01110100

More Conditions Fewer Conditions

Pressure 30.07 in
Visibility 10.0 miles
Clouds Few 800 ft
Overcast 1600 ft
Dew Point 51 °F
Humidity 94%
Rainfall 0.01 in
Snow Depth Not available.
UV 0 out of 12
Pollen 2.10 out of 12
Ozone Good
Flu Activity Not available.
METAR KIZG 300954Z AUTO 04006KT 10SM FEW008 OVC016 11/10 A3006 RMK AO2 SLP181 T01110100

More Conditions Fewer Conditions

10-Day Weather Forecast

Almanac

Astronomy

Sep. 30, 2014 Rise Set
Actual Time 6:40 AM EDT 6:26 PM EDT
Civil Twilight 6:11 AM EDT 6:55 PM EDT
Nautical Twilight 5:37 AM EDT 7:28 PM EDT
Astronomical Twilight 5:03 AM EDT 8:02 PM EDT
Moon 12:54 PM EDT 10:44 PM EDT
Length of Visible Light 12h 43m
Length of Day
11h 46m
Tomorrow will be 3m 0s shorter.
Waxing Crescent, 35% of the Moon is Illuminated
Today
Waxing Crescent
Oct 1
First Quarter
Oct 8
Full
Oct 15
Last Quarter
Oct 23
New

Today's Extremes

State Highs State Lows

Community

WunderPhotos

Upload Photos

1,757,609 photos uploaded!

WunderBlogs® & News

Nearby

Air Quality

  Air Quality AQ Index Pollutant
Yesterday Good
OZONE
Current Good
OZONE
Tuesday Good
OZONE
Tuesday Good
PM2.5
Wednesday Good
OZONE
Wednesday Good
PM2.5
Thursday Good
OZONE
Thursday Good
PM2.5
Friday Good
OZONE
Friday Good
PM2.5
Saturday Good
OZONE
Saturday Good
PM2.5

Snow Depth

Station Depth Elevation
No new snow has been reported.

Earthquake Activity

City Distance Mag. Time & Date
No recent earthquake activity has been reported nearby.
Minimum magnitude displayed is 2.5.

Coastal Water Temperatures

Place Temperature
No Stations Reporting

Nearby Weather Stations